PWSweather.com
Personal Weather Stations
Station Observations
UISISLE1
Newport, Isle ofWight, ISLE OF WIGHT PO30 2JX

NewportIsle ofWight, ISLE OF WIGHT PO30 2JX

Lat: 50.72, Lon: -1.27

Elevation: 45

Station Type: Davis Vantage Pro Plus

http://www.isleofwightweather.co.uk

High Low Average
Temperature 63.1°F17.3°F 40.2°F4.6°F 51.3°F10.7°F
Dew Point 50.2°F10.1°F 37.7°F3.2°F 44.2°F6.8°F
Winds 7.3 mph SW11.7 mph SW Calm Calm 1.7 mph 2.7 mph
Wind Gusts 11.0 mph17.7 mph -- 3.0 mph4.8 mph
Humidity 95% 54% 78%
Pressure 30.35 in1027.80 in 30.18 in1022.00 in -
Precipitation 0.00 in0.00 in - -
Hour Temp Dew Point Humidity Winds Wind Gusts Pressure Precip Precip Rate Daily Precip Total
12:00 AM 41.5°F5.3°C 38.5°F3.6°C 89% Calm Calm -- 30.35 in1027.8 mb - 0.00 in0.0 mm 0.00 in0.0 mm
12:15 AM 41.2°F5.1°C 38.2°F3.4°C 89% Calm Calm -- 30.35 in1027.8 mb - 0.00 in0.0 mm 0.00 in0.0 mm
12:30 AM 41.0°F5.0°C 38.0°F3.3°C 89% Calm Calm -- 30.35 in1027.8 mb - 0.00 in0.0 mm 0.00 in0.0 mm
12:45 AM 40.8°F4.9°C 38.1°F3.4°C 90% Calm Calm -- 30.35 in1027.8 mb - 0.00 in0.0 mm 0.00 in0.0 mm
01:00 AM 40.7°F4.8°C 38.0°F3.3°C 90% 0.1 mph SSW0.2 kmh SSW -- 30.35 in1027.8 mb - 0.00 in0.0 mm 0.00 in0.0 mm
01:15 AM 40.7°F4.8°C 38.0°F3.3°C 90% Calm Calm -- 30.34 in1027.4 mb - 0.00 in0.0 mm 0.00 in0.0 mm
01:30 AM 40.4°F4.7°C 37.7°F3.2°C 90% Calm Calm 1.0 mph1.6 kmh 30.34 in1027.4 mb - 0.00 in0.0 mm 0.00 in0.0 mm
01:45 AM 40.2°F4.6°C 37.8°F3.2°C 91% Calm Calm -- 30.35 in1027.8 mb - 0.00 in0.0 mm 0.00 in0.0 mm
02:00 AM 40.4°F4.7°C 38.0°F3.3°C 91% Calm Calm -- 30.34 in1027.4 mb - 0.00 in0.0 mm 0.00 in0.0 mm
02:15 AM 40.8°F4.9°C 38.7°F3.7°C 92% Calm Calm -- 30.34 in1027.4 mb - 0.00 in0.0 mm 0.00 in0.0 mm
02:30 AM 41.8°F5.4°C 39.9°F4.4°C 93% Calm Calm -- 30.35 in1027.8 mb - 0.00 in0.0 mm 0.00 in0.0 mm
02:45 AM 42.4°F5.8°C 40.5°F4.7°C 93% Calm Calm -- 30.34 in1027.4 mb - 0.00 in0.0 mm 0.00 in0.0 mm
03:00 AM 43.1°F6.2°C 41.2°F5.1°C 93% Calm Calm -- 30.34 in1027.4 mb - 0.00 in0.0 mm 0.00 in0.0 mm
03:15 AM 43.6°F6.4°C 41.7°F5.4°C 93% 0.1 mph NW0.2 kmh NW 1.0 mph1.6 kmh 30.34 in1027.4 mb - 0.00 in0.0 mm 0.00 in0.0 mm
03:30 AM 44.1°F6.7°C 42.2°F5.7°C 93% 0.8 mph NW1.3 kmh NW 2.1 mph3.4 kmh 30.34 in1027.4 mb - 0.00 in0.0 mm 0.00 in0.0 mm
03:45 AM 44.6°F7.0°C 42.7°F5.9°C 93% Calm Calm -- 30.33 in1027.1 mb - 0.00 in0.0 mm 0.00 in0.0 mm
04:00 AM 44.5°F6.9°C 42.6°F5.9°C 93% Calm Calm -- 30.33 in1027.1 mb - 0.00 in0.0 mm 0.00 in0.0 mm
04:15 AM 44.0°F6.7°C 42.1°F5.6°C 93% Calm Calm -- 30.33 in1027.1 mb - 0.00 in0.0 mm 0.00 in0.0 mm
04:30 AM 43.3°F6.3°C 41.4°F5.2°C 93% Calm Calm -- 30.34 in1027.4 mb - 0.00 in0.0 mm 0.00 in0.0 mm
04:45 AM 42.7°F5.9°C 40.8°F4.9°C 93% 0.6 mph WSW1.0 kmh WSW 3.0 mph4.8 kmh 30.34 in1027.4 mb - 0.00 in0.0 mm 0.00 in0.0 mm
05:00 AM 42.3°F5.7°C 40.4°F4.7°C 93% 0.4 mph WNW0.6 kmh WNW 2.1 mph3.4 kmh 30.34 in1027.4 mb - 0.00 in0.0 mm 0.00 in0.0 mm
05:15 AM 42.5°F5.8°C 40.6°F4.8°C 93% Calm Calm -- 30.34 in1027.4 mb - 0.00 in0.0 mm 0.00 in0.0 mm
05:30 AM 42.7°F5.9°C 41.1°F5.1°C 94% 0.1 mph WNW0.2 kmh WNW 1.0 mph1.6 kmh 30.34 in1027.4 mb - 0.00 in0.0 mm 0.00 in0.0 mm
05:45 AM 42.7°F5.9°C 40.8°F4.9°C 93% Calm Calm -- 30.34 in1027.4 mb - 0.00 in0.0 mm 0.00 in0.0 mm
06:00 AM 42.5°F5.8°C 40.6°F4.8°C 93% Calm Calm -- 30.34 in1027.4 mb - 0.00 in0.0 mm 0.00 in0.0 mm
06:15 AM 42.5°F5.8°C 40.6°F4.8°C 93% Calm Calm -- 30.34 in1027.4 mb - 0.00 in0.0 mm 0.00 in0.0 mm
06:30 AM 43.1°F6.2°C 41.5°F5.3°C 94% Calm Calm -- 30.35 in1027.8 mb - 0.00 in0.0 mm 0.00 in0.0 mm
06:45 AM 44.0°F6.7°C 42.4°F5.8°C 94% 0.4 mph W0.6 kmh W 2.1 mph3.4 kmh 30.35 in1027.8 mb - 0.00 in0.0 mm 0.00 in0.0 mm
07:00 AM 44.7°F7.1°C 43.4°F6.3°C 95% 0.2 mph W0.3 kmh W 1.0 mph1.6 kmh 30.35 in1027.8 mb - 0.00 in0.0 mm 0.00 in0.0 mm
07:15 AM 45.3°F7.4°C 44.0°F6.7°C 95% 0.7 mph NW1.1 kmh NW 3.1 mph5.0 kmh 30.35 in1027.8 mb - 0.00 in0.0 mm 0.00 in0.0 mm
07:30 AM 45.5°F7.5°C 43.9°F6.6°C 94% Calm Calm -- 30.35 in1027.8 mb - 0.00 in0.0 mm 0.00 in0.0 mm
07:45 AM 46.3°F7.9°C 44.9°F7.2°C 95% Calm Calm -- 30.35 in1027.8 mb - 0.00 in0.0 mm 0.00 in0.0 mm
08:00 AM 47.4°F8.6°C 46.0°F7.8°C 95% 1.6 mph NNW2.6 kmh NNW 2.1 mph3.4 kmh 30.35 in1027.8 mb - 0.00 in0.0 mm 0.00 in0.0 mm
08:15 AM 47.9°F8.8°C 46.3°F7.9°C 94% 0.1 mph N0.2 kmh N 1.0 mph1.6 kmh 30.35 in1027.8 mb - 0.00 in0.0 mm 0.00 in0.0 mm
08:30 AM 48.6°F9.2°C 47.0°F8.3°C 94% 1.3 mph N2.1 kmh N 3.1 mph5.0 kmh 30.35 in1027.8 mb - 0.00 in0.0 mm 0.00 in0.0 mm
08:45 AM 50.2°F10.1°C 48.6°F9.2°C 94% 2.6 mph NW4.2 kmh NW 3.1 mph5.0 kmh 30.35 in1027.8 mb - 0.00 in0.0 mm 0.00 in0.0 mm
09:00 AM 51.3°F10.7°C 49.4°F9.7°C 93% 0.4 mph W0.6 kmh W 2.1 mph3.4 kmh 30.34 in1027.4 mb - 0.00 in0.0 mm 0.00 in0.0 mm
09:15 AM 52.4°F11.3°C 49.6°F9.8°C 90% 0.6 mph SW1.0 kmh SW 2.0 mph3.2 kmh 30.35 in1027.8 mb - 0.00 in0.0 mm 0.00 in0.0 mm
09:30 AM 54.3°F12.4°C 50.2°F10.1°C 86% 3.1 mph NNW5.0 kmh NNW 6.2 mph10.0 kmh 30.34 in1027.4 mb - 0.00 in0.0 mm 0.00 in0.0 mm
09:45 AM 55.2°F12.9°C 49.1°F9.5°C 80% 1.8 mph NW2.9 kmh NW 4.1 mph6.6 kmh 30.34 in1027.4 mb - 0.00 in0.0 mm 0.00 in0.0 mm
10:00 AM 55.7°F13.2°C 48.2°F9.0°C 76% 2.9 mph NW4.7 kmh NW 4.1 mph6.6 kmh 30.34 in1027.4 mb - 0.00 in0.0 mm 0.00 in0.0 mm
10:15 AM 56.0°F13.3°C 47.8°F8.8°C 74% 2.3 mph NW3.7 kmh NW 3.1 mph5.0 kmh 30.34 in1027.4 mb - 0.00 in0.0 mm 0.00 in0.0 mm
10:30 AM 56.4°F13.6°C 47.1°F8.4°C 71% 4.3 mph N6.9 kmh N 6.2 mph10.0 kmh 30.34 in1027.4 mb - 0.00 in0.0 mm 0.00 in0.0 mm
10:45 AM 56.4°F13.6°C 46.3°F7.9°C 69% 3.5 mph NW5.6 kmh NW 4.1 mph6.6 kmh 30.33 in1027.1 mb - 0.00 in0.0 mm 0.00 in0.0 mm
11:00 AM 56.4°F13.6°C 46.0°F7.8°C 68% 0.5 mph NNW0.8 kmh NNW 1.0 mph1.6 kmh 30.33 in1027.1 mb - 0.00 in0.0 mm 0.00 in0.0 mm
11:15 AM 57.6°F14.2°C 46.3°F7.9°C 66% 0.2 mph N0.3 kmh N 1.0 mph1.6 kmh 30.32 in1026.8 mb - 0.00 in0.0 mm 0.00 in0.0 mm
11:30 AM 59.3°F15.2°C 46.3°F7.9°C 62% 0.4 mph NW0.6 kmh NW 2.1 mph3.4 kmh 30.32 in1026.8 mb - 0.00 in0.0 mm 0.00 in0.0 mm
11:45 AM 60.7°F15.9°C 46.3°F7.9°C 59% 2.2 mph N3.5 kmh N 3.1 mph5.0 kmh 30.32 in1026.8 mb - 0.00 in0.0 mm 0.00 in0.0 mm
12:00 PM 60.4°F15.8°C 46.5°F8.1°C 60% 1.1 mph ENE1.8 kmh ENE 3.0 mph4.8 kmh 30.31 in1026.4 mb - 0.00 in0.0 mm 0.00 in0.0 mm
12:15 PM 61.4°F16.3°C 45.6°F7.6°C 56% 2.6 mph NW4.2 kmh NW 3.1 mph5.0 kmh 30.31 in1026.4 mb - 0.00 in0.0 mm 0.00 in0.0 mm
12:30 PM 61.2°F16.2°C 44.9°F7.2°C 55% 0.1 mph N0.2 kmh N 2.1 mph3.4 kmh 30.30 in1026.1 mb - 0.00 in0.0 mm 0.00 in0.0 mm
12:45 PM 60.8°F16.0°C 45.0°F7.2°C 56% 6.1 mph NW9.8 kmh NW 8.2 mph13.2 kmh 30.30 in1026.1 mb - 0.00 in0.0 mm 0.00 in0.0 mm
01:00 PM 60.4°F15.8°C 45.5°F7.5°C 58% 1.1 mph NE1.8 kmh NE 2.1 mph3.4 kmh 30.30 in1026.1 mb - 0.00 in0.0 mm 0.00 in0.0 mm
01:15 PM 62.4°F16.9°C 46.5°F8.1°C 56% 4.1 mph WNW6.6 kmh WNW 5.1 mph8.2 kmh 30.29 in1025.7 mb - 0.00 in0.0 mm 0.00 in0.0 mm
01:30 PM 62.1°F16.7°C 45.2°F7.3°C 54% 1.1 mph NNW1.8 kmh NNW 1.0 mph1.6 kmh 30.29 in1025.7 mb - 0.00 in0.0 mm 0.00 in0.0 mm
01:45 PM 60.6°F15.9°C 45.3°F7.4°C 57% 3.8 mph N6.1 kmh N 5.1 mph8.2 kmh 30.29 in1025.7 mb - 0.00 in0.0 mm 0.00 in0.0 mm
02:00 PM 59.8°F15.4°C 45.9°F7.7°C 60% 0.1 mph N0.2 kmh N 1.0 mph1.6 kmh 30.28 in1025.4 mb - 0.00 in0.0 mm 0.00 in0.0 mm
02:15 PM 60.0°F15.6°C 46.5°F8.1°C 61% 4.9 mph SW7.9 kmh SW 8.0 mph12.9 kmh 30.28 in1025.4 mb - 0.00 in0.0 mm 0.00 in0.0 mm
02:30 PM 61.1°F16.2°C 46.6°F8.1°C 59% 3.7 mph SW6.0 kmh SW 5.0 mph8.0 kmh 30.27 in1025.1 mb - 0.00 in0.0 mm 0.00 in0.0 mm
02:45 PM 61.6°F16.4°C 46.7°F8.2°C 58% 3.8 mph WSW6.1 kmh WSW 7.0 mph11.3 kmh 30.27 in1025.1 mb - 0.00 in0.0 mm 0.00 in0.0 mm
03:00 PM 63.0°F17.2°C 48.0°F8.9°C 58% 4.4 mph WSW7.1 kmh WSW 8.0 mph12.9 kmh 30.26 in1024.7 mb - 0.00 in0.0 mm 0.00 in0.0 mm
03:15 PM 63.1°F17.3°C 46.2°F7.9°C 54% 4.7 mph WNW7.6 kmh WNW 7.2 mph11.6 kmh 30.26 in1024.7 mb - 0.00 in0.0 mm 0.00 in0.0 mm
03:30 PM 62.3°F16.8°C 45.4°F7.4°C 54% 6.8 mph S10.9 kmh S 11.0 mph17.7 kmh 30.25 in1024.4 mb - 0.00 in0.0 mm 0.00 in0.0 mm
03:45 PM 61.4°F16.3°C 44.6°F7.0°C 54% 7.3 mph SW11.7 kmh SW 10.0 mph16.1 kmh 30.26 in1024.7 mb - 0.00 in0.0 mm 0.00 in0.0 mm
04:00 PM 60.6°F15.9°C 43.8°F6.6°C 54% 4.9 mph SW7.9 kmh SW 6.0 mph9.7 kmh 30.25 in1024.4 mb - 0.00 in0.0 mm 0.00 in0.0 mm
04:15 PM 59.6°F15.3°C 43.4°F6.3°C 55% 6.7 mph SW10.8 kmh SW 8.0 mph12.9 kmh 30.25 in1024.4 mb - 0.00 in0.0 mm 0.00 in0.0 mm
04:30 PM 59.2°F15.1°C 43.9°F6.6°C 57% 4.8 mph SSW7.7 kmh SSW 7.0 mph11.3 kmh 30.25 in1024.4 mb - 0.00 in0.0 mm 0.00 in0.0 mm
04:45 PM 58.1°F14.5°C 45.1°F7.3°C 62% 4.0 mph SSW6.4 kmh SSW 7.0 mph11.3 kmh 30.25 in1024.4 mb - 0.00 in0.0 mm 0.00 in0.0 mm
05:00 PM 57.5°F14.2°C 45.8°F7.7°C 65% 1.4 mph SSW2.3 kmh SSW 3.0 mph4.8 kmh 30.25 in1024.4 mb - 0.00 in0.0 mm 0.00 in0.0 mm
05:15 PM 57.2°F14.0°C 44.7°F7.1°C 63% 3.4 mph WSW5.5 kmh WSW 4.0 mph6.4 kmh 30.24 in1024.0 mb - 0.00 in0.0 mm 0.00 in0.0 mm
05:30 PM 58.0°F14.4°C 44.6°F7.0°C 61% 2.6 mph W4.2 kmh W 5.0 mph8.0 kmh 30.24 in1024.0 mb - 0.00 in0.0 mm 0.00 in0.0 mm
05:45 PM 58.4°F14.7°C 45.0°F7.2°C 61% 4.6 mph WSW7.4 kmh WSW 5.0 mph8.0 kmh 30.23 in1023.7 mb - 0.00 in0.0 mm 0.00 in0.0 mm
06:00 PM 58.3°F14.6°C 45.3°F7.4°C 62% 4.1 mph SSW6.6 kmh SSW 6.0 mph9.7 kmh 30.23 in1023.7 mb - 0.00 in0.0 mm 0.00 in0.0 mm
06:15 PM 58.2°F14.6°C 45.7°F7.6°C 63% 1.0 mph SW1.6 kmh SW 4.0 mph6.4 kmh 30.23 in1023.7 mb - 0.00 in0.0 mm 0.00 in0.0 mm
06:30 PM 57.5°F14.2°C 45.0°F7.2°C 63% 2.2 mph WNW3.5 kmh WNW 5.0 mph8.0 kmh 30.23 in1023.7 mb - 0.00 in0.0 mm 0.00 in0.0 mm
06:45 PM 56.6°F13.7°C 45.0°F7.2°C 65% 1.5 mph SSW2.4 kmh SSW 2.0 mph3.2 kmh 30.23 in1023.7 mb - 0.00 in0.0 mm 0.00 in0.0 mm
07:00 PM 55.5°F13.1°C 45.1°F7.3°C 68% 2.9 mph SW4.7 kmh SW 5.0 mph8.0 kmh 30.23 in1023.7 mb - 0.00 in0.0 mm 0.00 in0.0 mm
07:15 PM 54.3°F12.4°C 45.1°F7.3°C 71% 0.3 mph SW0.5 kmh SW 4.0 mph6.4 kmh 30.22 in1023.4 mb - 0.00 in0.0 mm 0.00 in0.0 mm
07:30 PM 53.1°F11.7°C 44.3°F6.8°C 72% 0.2 mph SW0.3 kmh SW 2.0 mph3.2 kmh 30.22 in1023.4 mb - 0.00 in0.0 mm 0.00 in0.0 mm
07:45 PM 52.0°F11.1°C 44.0°F6.7°C 74% 0.1 mph SSE0.2 kmh SSE 1.0 mph1.6 kmh 30.22 in1023.4 mb - 0.00 in0.0 mm 0.00 in0.0 mm
08:00 PM 50.7°F10.4°C 42.7°F5.9°C 74% 0.6 mph SSW1.0 kmh SSW 1.0 mph1.6 kmh 30.22 in1023.4 mb - 0.00 in0.0 mm 0.00 in0.0 mm
08:15 PM 49.6°F9.8°C 42.3°F5.7°C 76% 2.0 mph SW3.2 kmh SW 2.0 mph3.2 kmh 30.22 in1023.4 mb - 0.00 in0.0 mm 0.00 in0.0 mm
08:30 PM 48.9°F9.4°C 42.7°F5.9°C 79% 0.9 mph SSW1.4 kmh SSW 3.0 mph4.8 kmh 30.22 in1023.4 mb - 0.00 in0.0 mm 0.00 in0.0 mm
08:45 PM 48.6°F9.2°C 43.4°F6.3°C 82% 0.3 mph SW0.5 kmh SW 2.0 mph3.2 kmh 30.22 in1023.4 mb - 0.00 in0.0 mm 0.00 in0.0 mm
09:00 PM 48.5°F9.2°C 43.9°F6.6°C 84% 1.0 mph SSW1.6 kmh SSW 2.0 mph3.2 kmh 30.22 in1023.4 mb - 0.00 in0.0 mm 0.00 in0.0 mm
09:15 PM 48.7°F9.3°C 44.7°F7.1°C 86% 1.5 mph SW2.4 kmh SW 4.0 mph6.4 kmh 30.21 in1023.0 mb - 0.00 in0.0 mm 0.00 in0.0 mm
09:30 PM 49.2°F9.6°C 45.5°F7.5°C 87% 3.3 mph SSW5.3 kmh SSW 6.0 mph9.7 kmh 30.21 in1023.0 mb - 0.00 in0.0 mm 0.00 in0.0 mm
09:45 PM 49.7°F9.8°C 46.3°F7.9°C 88% 3.0 mph S4.8 kmh S 5.0 mph8.0 kmh 30.20 in1022.7 mb - 0.00 in0.0 mm 0.00 in0.0 mm
10:00 PM 49.9°F9.9°C 46.8°F8.2°C 89% 0.5 mph S0.8 kmh S 3.0 mph4.8 kmh 30.20 in1022.7 mb - 0.00 in0.0 mm 0.00 in0.0 mm
10:15 PM 49.8°F9.9°C 46.4°F8.0°C 88% 2.5 mph SW4.0 kmh SW 4.0 mph6.4 kmh 30.20 in1022.7 mb - 0.00 in0.0 mm 0.00 in0.0 mm
10:30 PM 49.9°F9.9°C 46.8°F8.2°C 89% 2.0 mph SW3.2 kmh SW 4.0 mph6.4 kmh 30.20 in1022.7 mb - 0.00 in0.0 mm 0.00 in0.0 mm
10:45 PM 50.3°F10.2°C 47.2°F8.4°C 89% 3.2 mph SW5.1 kmh SW 5.0 mph8.0 kmh 30.20 in1022.7 mb - 0.00 in0.0 mm 0.00 in0.0 mm
11:00 PM 50.5°F10.3°C 47.4°F8.6°C 89% 3.2 mph SW5.1 kmh SW 5.0 mph8.0 kmh 30.19 in1022.4 mb - 0.00 in0.0 mm 0.00 in0.0 mm
11:15 PM 50.7°F10.4°C 47.9°F8.8°C 90% 2.4 mph SW3.9 kmh SW 4.0 mph6.4 kmh 30.19 in1022.4 mb - 0.00 in0.0 mm 0.00 in0.0 mm
11:30 PM 50.9°F10.5°C 48.0°F8.9°C 90% 4.0 mph SW6.4 kmh SW 6.0 mph9.7 kmh 30.19 in1022.4 mb - 0.00 in0.0 mm 0.00 in0.0 mm
11:45 PM 51.0°F10.6°C 48.2°F9.0°C 90% 4.2 mph SW6.8 kmh SW 6.0 mph9.7 kmh 30.18 in1022.0 mb - 0.00 in0.0 mm 0.00 in0.0 mm